Time;durP1;ratioP1;P1;durP2;ratioP2;P2;SDS_P1;SDS_P2;PMS_P1;PMS_P2;Temp;Humidity;BMP_temperature;BMP_pressure;BME280_temperature;BME280_humidity;BME280_pressure;Samples;Min_cycle;Max_cycle;Signal;HPM_P1;HPM_P2
2023/08/29 00:01:02;;;;;;;16.00;1.42;;;10.80;99.90;;;;;;4986004;28;20491;-79
2023/08/29 00:03:28;;;;;;;1.35;1.00;;;10.80;99.90;;;;;;5002573;28;20405;-78
2023/08/29 00:06:04;;;;;;;1.92;0.80;;;10.70;99.90;;;;;;4986024;28;20042;-78
2023/08/29 00:08:33;;;;;;;2.35;0.90;;;10.70;99.90;;;;;;4969125;28;20409;-79
2023/08/29 00:10:59;;;;;;;3.53;1.15;;;10.60;99.90;;;;;;4986233;28;20089;-78
2023/08/29 00:13:26;;;;;;;1.77;1.17;;;10.50;99.90;;;;;;4983248;28;20031;-78
2023/08/29 00:15:52;;;;;;;2.72;1.40;;;10.50;99.90;;;;;;4978485;28;20042;-78
2023/08/29 00:18:21;;;;;;;1.60;1.20;;;10.50;99.90;;;;;;4986906;28;20046;-79
2023/08/29 00:20:48;;;;;;;2.22;1.60;;;10.50;99.90;;;;;;4983101;28;20286;-79
2023/08/29 00:23:14;;;;;;;3.00;2.55;;;10.50;99.90;;;;;;4976937;28;20620;-77
2023/08/29 00:25:40;;;;;;;3.20;1.70;;;10.40;99.90;;;;;;4987070;28;20050;-77
2023/08/29 00:28:07;;;;;;;2.92;1.83;;;10.40;99.90;;;;;;4969575;28;21312;-78
2023/08/29 00:30:37;;;;;;;4.97;1.92;;;10.30;99.90;;;;;;5001461;28;20541;-78
2023/08/29 00:33:03;;;;;;;5.82;1.90;;;10.30;99.90;;;;;;4970489;28;20094;-78
2023/08/29 00:35:29;;;;;;;3.75;1.85;;;10.30;99.90;;;;;;4987060;28;20043;-77
2023/08/29 00:37:55;;;;;;;4.25;2.00;;;10.30;99.90;;;;;;4973435;28;20038;-77
2023/08/29 00:40:20;;;;;;;2.97;2.03;;;10.30;99.90;;;;;;4985126;28;20805;-77
2023/08/29 00:42:47;;;;;;;2.40;1.67;;;10.30;99.90;;;;;;4986022;28;20046;-78
2023/08/29 00:45:13;;;;;;;2.40;1.70;;;10.40;99.90;;;;;;4970300;28;20050;-77
2023/08/29 00:47:40;;;;;;;2.55;1.85;;;10.20;99.90;;;;;;4985976;28;20034;-78
2023/08/29 00:50:07;;;;;;;2.72;1.70;;;10.20;99.90;;;;;;4985446;28;20045;-77
2023/08/29 00:52:33;;;;;;;1.70;1.40;;;10.20;99.90;;;;;;4983536;28;20045;-77
2023/08/29 00:54:59;;;;;;;4.28;1.73;;;10.20;99.90;;;;;;4969721;28;20042;-77
2023/08/29 00:57:25;;;;;;;3.38;1.80;;;10.10;99.90;;;;;;4986611;28;20173;-77
2023/08/29 00:59:51;;;;;;;2.80;1.58;;;10.10;99.90;;;;;;4985031;28;20800;-78
2023/08/29 01:02:17;;;;;;;2.42;1.63;;;10.10;99.90;;;;;;4983117;28;20054;-77
2023/08/29 01:04:42;;;;;;;3.10;1.45;;;10.00;99.90;;;;;;4985234;28;20039;-77
2023/08/29 01:07:08;;;;;;;3.33;1.70;;;10.00;99.90;;;;;;4968330;28;20133;-78
2023/08/29 01:09:35;;;;;;;2.50;1.70;;;9.90;99.90;;;;;;4984395;28;20436;-77
2023/08/29 01:12:17;;;;;;;2.97;1.80;;;10.00;99.90;;;;;;4983319;28;20747;-77
2023/08/29 01:15:03;;;;;;;2.90;1.42;;;9.90;99.90;;;;;;4990375;28;20035;-77
2023/08/29 01:17:34;;;;;;;4.43;1.05;;;10.00;99.90;;;;;;4970246;28;20084;-77
2023/08/29 01:20:01;;;;;;;1.15;0.75;;;10.00;99.90;;;;;;4998986;28;20043;-77
2023/08/29 01:22:38;;;;;;;0.90;0.60;;;10.00;99.90;;;;;;4981862;28;20042;-77
2023/08/29 01:25:17;;;;;;;1.00;0.80;;;10.00;99.90;;;;;;4975964;28;20524;-77
2023/08/29 01:27:44;;;;;;;3.58;1.25;;;10.00;99.90;;;;;;4983342;28;20042;-78
2023/08/29 01:30:10;;;;;;;1.67;1.10;;;9.90;99.90;;;;;;5002211;28;20125;-77
2023/08/29 01:32:37;;;;;;;2.35;1.00;;;9.80;99.90;;;;;;4979461;28;20093;-77
2023/08/29 01:35:07;;;;;;;1.58;1.20;;;9.80;99.90;;;;;;4979440;28;20077;-78
2023/08/29 01:37:32;;;;;;;2.25;1.20;;;9.80;99.90;;;;;;4981645;28;20493;-78
2023/08/29 01:39:58;;;;;;;1.40;1.15;;;9.70;99.90;;;;;;4952664;28;20038;-77
2023/08/29 01:42:24;;;;;;;1.95;1.23;;;9.70;99.90;;;;;;4991733;28;20046;-77
2023/08/29 01:44:49;;;;;;;3.40;1.10;;;9.70;99.90;;;;;;4985422;28;20394;-78
2023/08/29 01:47:15;;;;;;;1.95;1.42;;;9.60;99.90;;;;;;4993196;28;20046;-77
2023/08/29 01:49:42;;;;;;;4.25;1.40;;;9.60;99.90;;;;;;4984473;28;20114;-77
2023/08/29 01:52:07;;;;;;;2.00;1.35;;;9.60;99.90;;;;;;5000633;28;20077;-78
2023/08/29 01:54:33;;;;;;;3.28;1.60;;;9.60;99.90;;;;;;4985467;28;20042;-78
2023/08/29 01:57:01;;;;;;;3.60;1.52;;;9.60;99.90;;;;;;4998916;28;20046;-77
2023/08/29 01:59:28;;;;;;;2.75;1.85;;;9.50;99.90;;;;;;4984032;28;20349;-77
2023/08/29 02:01:54;;;;;;;3.00;1.65;;;9.60;99.90;;;;;;4978893;28;20528;-77
2023/08/29 02:04:19;;;;;;;2.95;1.63;;;9.50;99.90;;;;;;4981524;28;20038;-77
2023/08/29 02:06:45;;;;;;;4.97;1.80;;;9.50;99.90;;;;;;4971775;28;20049;-77
2023/08/29 02:09:11;;;;;;;3.88;2.03;;;9.50;99.90;;;;;;4985005;28;20054;-77
2023/08/29 02:11:36;;;;;;;3.67;1.70;;;9.40;99.90;;;;;;5001068;28;20055;-77
2023/08/29 02:14:02;;;;;;;2.75;1.70;;;9.40;99.90;;;;;;4985823;28;20404;-76
2023/08/29 02:16:28;;;;;;;2.13;1.60;;;9.40;99.90;;;;;;4984199;28;20038;-77
2023/08/29 02:18:53;;;;;;;3.03;1.45;;;9.40;99.90;;;;;;4984860;28;20093;-77
2023/08/29 02:21:19;;;;;;;2.40;1.55;;;9.50;99.90;;;;;;4998638;28;20524;-77
2023/08/29 02:23:45;;;;;;;3.67;1.83;;;9.50;99.90;;;;;;4970737;28;20100;-77
2023/08/29 02:26:11;;;;;;;2.80;1.90;;;9.40;99.90;;;;;;4969139;28;20076;-78
2023/08/29 02:28:38;;;;;;;3.58;1.63;;;9.40;99.90;;;;;;5006244;28;20050;-77
2023/08/29 02:31:08;;;;;;;2.80;1.75;;;9.40;99.90;;;;;;4984699;28;20100;-77
2023/08/29 02:33:36;;;;;;;4.00;1.45;;;9.40;99.90;;;;;;4970172;28;20133;-77
2023/08/29 02:36:04;;;;;;;3.35;1.55;;;9.30;99.90;;;;;;4988986;28;20066;-77
2023/08/29 02:38:30;;;;;;;1.90;1.38;;;9.30;99.90;;;;;;4987162;28;20042;-77
2023/08/29 02:40:56;;;;;;;2.50;1.75;;;9.30;99.90;;;;;;4984249;28;20512;-77
2023/08/29 02:43:21;;;;;;;2.10;1.50;;;9.20;99.90;;;;;;5000440;28;20042;-76
2023/08/29 02:45:50;;;;;;;3.25;1.70;;;9.20;99.90;;;;;;4988914;28;20148;-77
2023/08/29 02:48:15;;;;;;;2.95;1.08;;;9.20;99.90;;;;;;4988131;28;20046;-77
2023/08/29 02:50:42;;;;;;;1.25;0.88;;;9.20;99.90;;;;;;4988781;28;20042;-77
2023/08/29 02:53:08;;;;;;;2.33;1.65;;;9.10;99.90;;;;;;5001825;28;20113;-77
2023/08/29 02:55:33;;;;;;;3.47;1.40;;;9.10;99.90;;;;;;4982794;28;20121;-77
2023/08/29 02:57:59;;;;;;;2.08;1.40;;;9.10;99.90;;;;;;4973405;28;20674;-77
2023/08/29 03:00:24;;;;;;;3.70;1.50;;;9.10;99.90;;;;;;4964043;28;20061;-77
2023/08/29 03:02:50;;;;;;;2.80;1.88;;;9.00;99.90;;;;;;5004174;28;20073;-78
2023/08/29 03:05:16;;;;;;;3.20;1.50;;;9.00;99.90;;;;;;4987338;28;20050;-76
2023/08/29 03:07:41;;;;;;;1.50;1.27;;;9.10;99.90;;;;;;4988560;28;20054;-77
2023/08/29 03:10:07;;;;;;;2.92;1.45;;;9.00;99.90;;;;;;5003303;28;20069;-77
2023/08/29 03:12:33;;;;;;;2.05;1.35;;;9.00;99.90;;;;;;5003950;28;20596;-78
2023/08/29 03:14:58;;;;;;;3.17;1.50;;;8.90;99.90;;;;;;4968115;28;20041;-77
2023/08/29 03:17:25;;;;;;;3.58;1.50;;;8.90;99.90;;;;;;4972023;28;20047;-77
2023/08/29 03:19:50;;;;;;;2.22;1.52;;;8.90;99.90;;;;;;5003478;28;20057;-77
2023/08/29 03:22:16;;;;;;;2.47;1.52;;;8.90;99.90;;;;;;4988545;28;20133;-77
2023/08/29 03:24:46;;;;;;;2.50;1.70;;;8.90;99.90;;;;;;4986635;28;20046;-77
2023/08/29 03:27:12;;;;;;;1.88;1.40;;;8.90;99.90;;;;;;4978824;28;20042;-77
2023/08/29 03:29:38;;;;;;;2.67;1.70;;;8.90;99.90;;;;;;4971622;28;20117;-77
2023/08/29 03:32:03;;;;;;;3.15;1.92;;;8.90;99.90;;;;;;4971776;28;20034;-77
2023/08/29 03:34:29;;;;;;;1.38;1.00;;;8.80;99.90;;;;;;4986276;28;20492;-77
2023/08/29 03:36:55;;;;;;;2.35;1.25;;;8.70;99.90;;;;;;4985195;28;20096;-78
2023/08/29 03:39:20;;;;;;;1.90;1.30;;;8.80;99.90;;;;;;5002668;28;20131;-77
2023/08/29 03:41:46;;;;;;;2.15;1.23;;;8.70;99.90;;;;;;5003453;28;20030;-77
2023/08/29 03:44:12;;;;;;;4.65;1.30;;;8.70;99.90;;;;;;5002909;28;20042;-78
2023/08/29 03:46:37;;;;;;;1.88;1.20;;;8.70;99.90;;;;;;4986460;28;20046;-77
2023/08/29 03:49:03;;;;;;;2.20;1.60;;;8.70;99.90;;;;;;4971475;28;20070;-77
2023/08/29 03:51:30;;;;;;;2.40;1.52;;;8.70;99.90;;;;;;4987098;28;20413;-77
2023/08/29 03:53:55;;;;;;;2.03;1.35;;;8.70;99.90;;;;;;5003255;28;20054;-76
2023/08/29 03:56:21;;;;;;;2.75;1.58;;;8.70;99.90;;;;;;4985182;28;20440;-77
2023/08/29 03:58:49;;;;;;;1.90;1.50;;;8.60;99.90;;;;;;5003483;28;20049;-77
2023/08/29 04:01:14;;;;;;;3.47;1.42;;;8.60;99.90;;;;;;5002384;28;20041;-77
2023/08/29 04:03:40;;;;;;;3.97;1.58;;;8.60;99.90;;;;;;4971186;28;20413;-77
2023/08/29 04:06:06;;;;;;;4.53;1.45;;;8.60;99.90;;;;;;5001734;28;20034;-76
2023/08/29 04:08:32;;;;;;;4.28;1.75;;;8.60;99.90;;;;;;4987571;28;20045;-77
2023/08/29 04:10:58;;;;;;;3.35;1.30;;;8.50;99.90;;;;;;4974466;28;20038;-77
2023/08/29 04:13:23;;;;;;;2.05;1.33;;;8.50;99.90;;;;;;5000405;28;20035;-77
2023/08/29 04:15:49;;;;;;;1.95;1.20;;;8.50;99.90;;;;;;4982819;28;20149;-77
2023/08/29 04:18:16;;;;;;;3.97;1.48;;;8.40;99.90;;;;;;5003696;28;20047;-77
2023/08/29 04:20:43;;;;;;;2.70;1.70;;;8.40;99.90;;;;;;4986299;28;20046;-77
2023/08/29 04:23:10;;;;;;;4.95;1.45;;;8.40;99.90;;;;;;4998316;28;20047;-78
2023/08/29 04:25:36;;;;;;;2.97;0.80;;;8.50;99.90;;;;;;4996270;28;20042;-78
2023/08/29 04:28:05;;;;;;;1.42;0.77;;;8.50;99.90;;;;;;4986000;28;20401;-78
2023/08/29 04:30:31;;;;;;;3.03;1.00;;;8.60;99.90;;;;;;5000106;28;20089;-78
2023/08/29 04:32:59;;;;;;;1.17;0.70;;;8.60;99.90;;;;;;4981674;28;20521;-78
2023/08/29 04:35:25;;;;;;;2.33;0.82;;;8.60;99.90;;;;;;4969127;28;20038;-78
2023/08/29 04:37:50;;;;;;;1.17;0.70;;;8.60;99.90;;;;;;5001694;28;20097;-77
2023/08/29 04:40:17;;;;;;;1.02;0.70;;;8.60;99.90;;;;;;4986285;28;20042;-77
2023/08/29 04:42:44;;;;;;;1.17;0.80;;;8.60;99.90;;;;;;4986512;28;20049;-75
2023/08/29 04:45:10;;;;;;;0.90;0.60;;;8.50;99.90;;;;;;4971743;28;20094;-77
2023/08/29 04:47:37;;;;;;;1.65;0.68;;;8.50;99.90;;;;;;4984712;28;20038;-77
2023/08/29 04:50:03;;;;;;;1.13;0.80;;;8.50;99.90;;;;;;4985977;28;20671;-78
2023/08/29 04:52:29;;;;;;;1.10;0.93;;;8.40;99.90;;;;;;4986222;28;20092;-77
2023/08/29 04:54:55;;;;;;;2.00;1.08;;;8.40;99.90;;;;;;4982586;28;20054;-78
2023/08/29 04:57:21;;;;;;;2.72;1.25;;;8.40;99.90;;;;;;5001913;28;20042;-78
2023/08/29 04:59:49;;;;;;;2.80;1.40;;;8.50;99.90;;;;;;4981922;28;20047;-77
2023/08/29 05:02:16;;;;;;;2.28;1.40;;;8.50;99.90;;;;;;4974335;28;20505;-77
2023/08/29 05:04:45;;;;;;;1.42;0.98;;;8.50;99.90;;;;;;4981936;28;20830;-77
2023/08/29 05:07:11;;;;;;;2.40;0.90;;;8.50;99.90;;;;;;5000935;28;20096;-77
2023/08/29 05:09:36;;;;;;;2.88;0.95;;;8.40;99.90;;;;;;4994139;28;20450;-77
2023/08/29 05:12:02;;;;;;;2.67;1.00;;;8.40;99.90;;;;;;4970138;28;20070;-77
2023/08/29 05:14:28;;;;;;;2.13;0.60;;;8.50;99.90;;;;;;5000417;28;20523;-77
2023/08/29 05:16:54;;;;;;;2.03;0.98;;;8.50;99.90;;;;;;4984833;28;20077;-77
2023/08/29 05:19:20;;;;;;;1.98;1.00;;;8.50;99.90;;;;;;4986157;28;20481;-77
2023/08/29 05:21:46;;;;;;;2.20;1.00;;;8.50;99.90;;;;;;4998807;28;20039;-77
2023/08/29 05:24:11;;;;;;;1.55;1.05;;;8.50;99.90;;;;;;5000871;28;20100;-77
2023/08/29 05:26:37;;;;;;;1.77;1.13;;;8.40;99.90;;;;;;4999847;28;20042;-78
2023/08/29 05:29:03;;;;;;;3.42;1.75;;;8.40;99.90;;;;;;4982228;28;20038;-77
2023/08/29 05:31:29;;;;;;;3.25;1.45;;;8.50;99.90;;;;;;4975797;28;20046;-78
2023/08/29 05:33:55;;;;;;;2.65;1.60;;;8.50;99.90;;;;;;4985593;28;20035;-78
2023/08/29 05:36:20;;;;;;;2.45;1.40;;;8.50;99.90;;;;;;4982344;28;20061;-78
2023/08/29 05:38:47;;;;;;;2.45;1.25;;;8.60;99.90;;;;;;4982874;28;20401;-77
2023/08/29 05:41:13;;;;;;;1.80;1.40;;;8.60;99.90;;;;;;5001262;28;20046;-78
2023/08/29 05:43:38;;;;;;;2.22;1.45;;;8.60;99.90;;;;;;4979724;28;20038;-78
2023/08/29 05:46:04;;;;;;;3.72;1.63;;;8.60;99.90;;;;;;4984792;28;20379;-77
2023/08/29 05:48:30;;;;;;;2.42;1.30;;;8.60;99.90;;;;;;4983616;28;20139;-77
2023/08/29 05:50:55;;;;;;;2.85;1.60;;;8.60;99.90;;;;;;4976285;28;20378;-77
2023/08/29 05:53:21;;;;;;;3.65;1.30;;;8.70;99.90;;;;;;4978653;28;20053;-77
2023/08/29 05:55:47;;;;;;;2.28;1.50;;;8.70;99.90;;;;;;4977456;28;20045;-76
2023/08/29 05:58:12;;;;;;;8.02;2.00;;;8.80;99.90;;;;;;4984267;28;20046;-76
2023/08/29 06:00:41;;;;;;;4.97;1.92;;;8.80;99.90;;;;;;4984863;28;20052;-77
2023/08/29 06:03:07;;;;;;;3.58;1.67;;;8.90;99.90;;;;;;4982816;28;20105;-76
2023/08/29 06:05:33;;;;;;;2.80;1.80;;;9.00;99.90;;;;;;4966810;28;20046;-76
2023/08/29 06:08:02;;;;;;;2.55;1.83;;;9.10;99.90;;;;;;4983888;28;20508;-76
2023/08/29 06:10:29;;;;;;;3.03;1.75;;;9.10;99.90;;;;;;4988529;28;20177;-77
2023/08/29 06:12:55;;;;;;;5.82;1.92;;;9.20;99.90;;;;;;4981375;28;20113;-76
2023/08/29 06:15:22;;;;;;;3.67;1.70;;;9.30;99.90;;;;;;4996905;28;20491;-77
2023/08/29 06:17:48;;;;;;;2.75;1.85;;;9.30;99.90;;;;;;4988608;28;20112;-76
2023/08/29 06:20:14;;;;;;;3.30;1.80;;;9.40;99.90;;;;;;4983955;28;20050;-76
2023/08/29 06:22:40;;;;;;;4.38;1.90;;;9.50;99.90;;;;;;4989031;28;20038;-76
2023/08/29 06:25:06;;;;;;;2.67;1.98;;;9.70;99.90;;;;;;4991391;28;20444;-76
2023/08/29 06:27:33;;;;;;;3.67;2.00;;;9.80;99.90;;;;;;4983999;28;20687;-76
2023/08/29 06:29:59;;;;;;;4.30;2.42;;;9.90;99.90;;;;;;4981848;28;20061;-76
2023/08/29 06:32:24;;;;;;;3.17;2.20;;;10.10;99.90;;;;;;4982445;28;20038;-76
2023/08/29 06:34:50;;;;;;;3.75;2.75;;;10.20;99.90;;;;;;4987454;28;20038;-77
2023/08/29 06:37:16;;;;;;;3.25;2.20;;;10.50;99.90;;;;;;4986974;28;20256;-76
2023/08/29 06:39:42;;;;;;;4.50;2.78;;;10.60;99.90;;;;;;4994696;28;20605;-76
2023/08/29 06:42:08;;;;;;;3.90;2.40;;;10.80;99.90;;;;;;4992951;28;20038;-76
2023/08/29 06:44:34;;;;;;;3.88;2.25;;;11.00;99.90;;;;;;4983163;28;20476;-78
2023/08/29 06:46:59;;;;;;;3.47;2.30;;;11.10;99.90;;;;;;4985320;28;20031;-76
2023/08/29 06:49:26;;;;;;;3.92;2.13;;;11.30;99.90;;;;;;4980257;28;20037;-76
2023/08/29 06:51:52;;;;;;;3.70;1.98;;;11.50;99.90;;;;;;4968179;28;20049;-76
2023/08/29 06:54:18;;;;;;;3.08;2.20;;;11.70;99.90;;;;;;4987737;28;20035;-76
2023/08/29 06:56:43;;;;;;;2.97;2.05;;;11.90;99.90;;;;;;5004000;28;20046;-78
2023/08/29 06:59:10;;;;;;;3.70;1.98;;;12.10;99.90;;;;;;4993721;28;20069;-78
2023/08/29 07:01:37;;;;;;;2.65;1.85;;;12.30;99.90;;;;;;4987554;28;20062;-79
2023/08/29 07:04:03;;;;;;;3.65;2.05;;;12.40;99.90;;;;;;4997434;28;20135;-77
2023/08/29 07:06:28;;;;;;;3.67;1.70;;;12.60;99.90;;;;;;4983089;28;20118;-77
2023/08/29 07:08:54;;;;;;;3.22;1.52;;;12.70;99.90;;;;;;4991632;28;20046;-78
2023/08/29 07:11:20;;;;;;;3.17;1.40;;;12.90;99.90;;;;;;4989345;28;20651;-77
2023/08/29 07:13:46;;;;;;;2.30;1.50;;;13.10;99.90;;;;;;4987835;28;20050;-77
2023/08/29 07:16:11;;;;;;;3.92;1.40;;;13.10;99.90;;;;;;4986691;28;20049;-78
2023/08/29 07:18:37;;;;;;;3.20;1.35;;;13.30;99.90;;;;;;4985621;28;20064;-77
2023/08/29 07:21:03;;;;;;;2.72;1.48;;;13.50;99.90;;;;;;4984332;28;20034;-78
2023/08/29 07:23:29;;;;;;;1.65;1.17;;;13.60;99.90;;;;;;4983909;28;20049;-78
2023/08/29 07:25:55;;;;;;;3.17;1.60;;;13.70;99.90;;;;;;4966086;28;20038;-77
2023/08/29 07:28:20;;;;;;;3.83;1.33;;;14.00;99.90;;;;;;4967835;28;20578;-77
2023/08/29 07:30:50;;;;;;;4.20;1.23;;;14.10;99.90;;;;;;4984591;28;20417;-78
2023/08/29 07:33:16;;;;;;;2.70;1.60;;;14.30;99.90;;;;;;4982023;28;20099;-78
2023/08/29 07:35:42;;;;;;;1.98;1.40;;;14.40;99.90;;;;;;4970943;28;20054;-78
2023/08/29 07:38:09;;;;;;;1.42;1.17;;;14.60;99.90;;;;;;4988150;28;20096;-78
2023/08/29 07:40:35;;;;;;;3.58;1.17;;;14.70;99.90;;;;;;5010472;28;20444;-77
2023/08/29 07:43:03;;;;;;;1.65;1.00;;;14.90;99.90;;;;;;4988935;28;20053;-78
2023/08/29 07:45:29;;;;;;;4.95;1.80;;;15.00;99.90;;;;;;4982108;28;20113;-77
2023/08/29 07:47:55;;;;;;;6.50;1.17;;;15.20;99.90;;;;;;4957645;28;20043;-77
2023/08/29 07:50:21;;;;;;;1.33;0.90;;;15.30;99.90;;;;;;4982800;28;20093;-78
2023/08/29 07:52:47;;;;;;;1.67;0.85;;;15.50;99.90;;;;;;5000352;28;20092;-78
2023/08/29 07:55:12;;;;;;;2.35;0.90;;;15.60;99.90;;;;;;4991054;28;20045;-77
2023/08/29 07:57:38;;;;;;;2.25;0.90;;;15.80;99.90;;;;;;5002205;28;20038;-78
2023/08/29 08:00:06;;;;;;;3.00;0.88;;;15.90;99.90;;;;;;4986568;28;20034;-78
2023/08/29 08:02:38;;;;;;;2.08;0.70;;;16.00;99.90;;;;;;4977002;28;20042;-78
2023/08/29 08:05:10;;;;;;;2.67;0.80;;;16.20;99.90;;;;;;4971328;28;20030;-78
2023/08/29 08:07:37;;;;;;;1.52;0.90;;;16.30;99.90;;;;;;5001278;28;20114;-79
2023/08/29 08:10:04;;;;;;;1.30;0.70;;;16.40;99.90;;;;;;4997617;28;20990;-78
2023/08/29 08:12:31;;;;;;;2.00;0.80;;;16.60;99.90;;;;;;4983354;28;20625;-78
2023/08/29 08:14:56;;;;;;;1.65;0.80;;;16.70;99.90;;;;;;4992247;28;20113;-78
2023/08/29 08:17:22;;;;;;;1.88;1.00;;;16.80;99.90;;;;;;4988776;28;20125;-80
2023/08/29 08:19:48;;;;;;;2.17;0.85;;;16.90;99.90;;;;;;4999337;28;20053;-78
2023/08/29 08:22:13;;;;;;;1.13;0.90;;;17.00;99.90;;;;;;4982803;28;20070;-79
2023/08/29 08:24:40;;;;;;;1.65;0.93;;;17.20;99.90;;;;;;4977759;28;20072;-78
2023/08/29 08:27:07;;;;;;;1.17;0.70;;;17.20;99.90;;;;;;4977979;28;20050;-78
2023/08/29 08:29:33;;;;;;;1.27;0.85;;;17.30;98.50;;;;;;4980639;28;20560;-77
2023/08/29 08:31:58;;;;;;;1.35;0.80;;;17.40;87.50;;;;;;4980480;28;20137;-77
2023/08/29 08:34:24;;;;;;;1.42;0.80;;;17.50;52.50;;;;;;4985529;28;20042;-78
2023/08/29 08:36:50;;;;;;;1.55;0.90;;;17.70;12.30;;;;;;4970969;28;20141;-78
2023/08/29 08:39:15;;;;;;;1.20;0.70;;;17.80;10.20;;;;;;4964939;28;20438;-79
2023/08/29 08:41:42;;;;;;;2.13;0.68;;;17.90;1.00;;;;;;4978253;28;20428;-79
2023/08/29 08:44:16;;;;;;;0.85;0.60;;;18.10;1.00;;;;;;4981840;28;20121;-79
2023/08/29 08:46:43;;;;;;;0.50;0.40;;;18.30;1.00;;;;;;4984306;28;20174;-79
2023/08/29 08:49:10;;;;;;;1.30;0.60;;;18.60;1.00;;;;;;4966815;28;20035;-80
2023/08/29 08:51:40;;;;;;;2.00;0.70;;;18.80;1.00;;;;;;4980275;28;20527;-81
2023/08/29 08:54:09;;;;;;;1.15;0.30;;;19.10;99.90;;;;;;4984189;28;20030;-80
2023/08/29 08:56:38;;;;;;;0.77;0.32;;;19.30;99.90;;;;;;4982722;28;20041;-80
2023/08/29 08:59:04;;;;;;;1.60;0.50;;;19.40;99.90;;;;;;4985105;28;20038;-79
2023/08/29 09:01:30;;;;;;;1.50;0.45;;;19.40;99.90;;;;;;4981909;28;20693;-79
2023/08/29 09:03:56;;;;;;;1.13;0.22;;;19.50;99.90;;;;;;4984171;28;20035;-79
2023/08/29 09:06:22;;;;;;;1.92;0.50;;;19.40;99.90;;;;;;4999790;28;20126;-80
2023/08/29 09:08:48;;;;;;;1.17;0.60;;;19.50;92.40;;;;;;4966969;28;20129;-79
2023/08/29 09:11:18;;;;;;;0.47;0.35;;;19.60;65.50;;;;;;4985840;28;20045;-80
2023/08/29 09:13:49;;;;;;;1.85;0.40;;;19.90;1.00;;;;;;4983886;28;20264;-79
2023/08/29 09:16:16;;;;;;;2.47;0.60;;;20.10;99.90;;;;;;4963311;28;20448;-79
2023/08/29 09:18:49;;;;;;;1.52;0.30;;;20.20;99.90;;;;;;4986273;28;20038;-79
2023/08/29 09:21:21;;;;;;;2.30;0.52;;;20.30;99.90;;;;;;4986660;28;20190;-79
2023/08/29 09:23:47;;;;;;;0.40;0.40;;;20.50;99.90;;;;;;4987497;28;20046;-80
2023/08/29 09:26:13;;;;;;;1.45;0.40;;;20.70;99.90;;;;;;4975003;28;20053;-79
2023/08/29 09:28:39;;;;;;;0.40;0.30;;;20.90;99.90;;;;;;4970456;28;20634;-80
2023/08/29 09:31:09;;;;;;;0.82;0.30;;;21.10;99.90;;;;;;4972081;28;20058;-80
2023/08/29 09:33:37;;;;;;;1.90;0.52;;;21.20;99.90;;;;;;4970426;28;20045;-81
2023/08/29 09:36:07;;;;;;;1.20;0.20;;;21.30;99.90;;;;;;4979587;28;20038;-80
2023/08/29 09:38:34;;;;;;;0.85;0.20;;;21.10;99.90;;;;;;4978943;28;20412;-80
2023/08/29 09:41:00;;;;;;;0.55;0.30;;;20.90;99.90;;;;;;4975658;28;20497;-80
2023/08/29 09:43:30;;;;;;;0.47;0.30;;;20.70;89.80;;;;;;4967673;28;20560;-80
2023/08/29 09:45:57;;;;;;;0.98;0.43;;;20.50;26.90;;;;;;4966845;28;20034;-82
2023/08/29 09:48:23;;;;;;;1.27;0.30;;;20.50;47.10;;;;;;4985939;28;20524;-81
2023/08/29 09:50:50;;;;;;;1.10;0.30;;;20.60;63.20;;;;;;4967749;28;21723;-80
2023/08/29 09:53:19;;;;;;;1.85;0.40;;;20.60;18.50;;;;;;4986479;28;20038;-81
2023/08/29 09:56:07;;;;;;;1.45;0.50;;;20.50;17.50;;;;;;4985924;28;20100;-80
2023/08/29 09:58:37;;;;;;;0.93;0.35;;;20.50;1.00;;;;;;4972635;28;20069;-81
2023/08/29 10:01:05;;;;;;;0.85;0.30;;;20.20;17.00;;;;;;4974299;28;20077;-79
2023/08/29 10:03:31;;;;;;;1.90;0.30;;;20.10;25.10;;;;;;4987747;28;20074;-81
2023/08/29 10:06:02;;;;;;;0.38;0.30;;;20.10;19.20;;;;;;4985696;28;20531;-81
2023/08/29 10:08:51;;;;;;;2.03;0.50;;;20.20;7.50;;;;;;4971500;28;20050;-81
2023/08/29 10:11:19;;;;;;;1.52;0.52;;;20.40;1.00;;;;;;4984057;28;20042;-80
2023/08/29 10:13:46;;;;;;;1.20;0.45;;;20.60;1.00;;;;;;5001628;28;20046;-81
2023/08/29 10:16:14;;;;;;;0.70;0.40;;;21.40;1.00;;;;;;4985781;28;20097;-80
2023/08/29 10:18:40;;;;;;;2.08;0.52;;;22.00;1.00;;;;;;4987728;28;20046;-80
2023/08/29 10:21:06;;;;;;;1.45;0.40;;;22.10;1.00;;;;;;4987701;28;20124;-80
2023/08/29 10:23:35;;;;;;;0.65;0.40;;;22.60;1.00;;;;;;4983194;28;20476;-80
2023/08/29 10:26:01;;;;;;;1.73;0.50;;;22.90;1.00;;;;;;4985596;28;20461;-80
2023/08/29 10:28:29;;;;;;;0.60;0.30;;;23.00;1.00;;;;;;5002846;28;20065;-80
2023/08/29 10:31:00;;;;;;;1.23;0.40;;;23.10;1.00;;;;;;4971352;28;20042;-80
2023/08/29 10:33:26;;;;;;;0.90;0.40;;;23.30;1.00;;;;;;4987354;28;20589;-80
2023/08/29 10:35:55;;;;;;;2.10;0.30;;;23.30;1.00;;;;;;5000699;28;20447;-80
2023/08/29 10:38:21;;;;;;;0.68;0.30;;;23.40;1.00;;;;;;5000471;28;20129;-80
2023/08/29 10:40:59;;;;;;;0.30;0.30;;;23.20;1.00;;;;;;4955305;28;20078;-80
2023/08/29 10:43:25;;;;;;;0.30;0.30;;;23.00;1.00;;;;;;5002389;28;20092;-80
2023/08/29 10:45:51;;;;;;;1.30;0.32;;;22.90;1.00;;;;;;4969874;28;20593;-79
2023/08/29 10:48:19;;;;;;;0.40;0.20;;;23.00;1.00;;;;;;4984704;28;20046;-79
2023/08/29 10:50:47;;;;;;;0.90;0.30;;;22.90;1.00;;;;;;4984463;28;20548;-79
2023/08/29 10:53:18;;;;;;;0.82;0.30;;;23.20;1.00;;;;;;4986141;28;20060;-79
2023/08/29 10:55:58;;;;;;;0.95;0.32;;;23.50;1.00;;;;;;4986722;28;20030;-80
2023/08/29 10:58:34;;;;;;;0.52;0.32;;;23.50;1.00;;;;;;5001965;28;20137;-80
2023/08/29 11:01:00;;;;;;;0.40;0.25;;;23.40;1.00;;;;;;4984061;28;20052;-82
2023/08/29 11:03:48;;;;;;;0.73;0.38;;;23.30;1.00;;;;;;4979097;28;20133;-80
2023/08/29 11:06:15;;;;;;;0.52;0.30;;;23.30;1.00;;;;;;4990782;28;20130;-81
2023/08/29 11:08:41;;;;;;;0.57;0.30;;;23.20;1.00;;;;;;4992538;28;20489;-81
2023/08/29 11:11:17;;;;;;;0.73;0.35;;;23.10;1.00;;;;;;4988226;28;20095;-80
2023/08/29 11:14:03;;;;;;;1.40;0.40;;;23.10;1.00;;;;;;4989432;28;20100;-80
2023/08/29 11:16:36;;;;;;;0.57;0.20;;;22.90;1.00;;;;;;4978024;28;20034;-80
2023/08/29 11:19:16;;;;;;;0.45;0.25;;;22.70;1.00;;;;;;4972961;28;20041;-81
2023/08/29 11:21:45;;;;;;;0.73;0.32;;;22.40;1.00;;;;;;4976208;28;20447;-81
2023/08/29 11:24:11;;;;;;;0.60;0.40;;;22.20;1.00;;;;;;4990109;28;20050;-81
2023/08/29 11:26:42;;;;;;;0.32;0.22;;;22.00;1.00;;;;;;4971713;28;20040;-80
2023/08/29 11:29:08;;;;;;;1.60;0.50;;;21.80;1.00;;;;;;4971793;28;20525;-80
2023/08/29 11:31:42;;;;;;;0.40;0.25;;;21.60;1.00;;;;;;4981398;28;20118;-80
2023/08/29 11:34:17;;;;;;;1.75;0.60;;;21.50;1.00;;;;;;5007342;28;20492;-81
2023/08/29 11:36:46;;;;;;;1.25;0.55;;;21.70;1.00;;;;;;4984422;28;20149;-80
2023/08/29 11:39:12;;;;;;;0.93;0.32;;;21.80;1.00;;;;;;4977982;28;20110;-80
2023/08/29 11:41:38;;;;;;;0.50;0.30;;;21.90;1.00;;;;;;4990214;28;20131;-80
2023/08/29 11:44:03;;;;;;;0.40;0.30;;;22.10;1.00;;;;;;4973875;28;20076;-80
2023/08/29 11:46:35;;;;;;;1.42;0.50;;;22.20;1.00;;;;;;4987290;28;20045;-81
2023/08/29 11:49:11;;;;;;;0.47;0.40;;;22.20;1.00;;;;;;4995563;28;20038;-79
2023/08/29 11:51:37;;;;;;;4.28;1.27;;;22.10;1.00;;;;;;4989949;28;20065;-80
2023/08/29 11:54:03;;;;;;;0.50;0.50;;;21.90;1.00;;;;;;4979826;28;20100;-80
2023/08/29 11:56:28;;;;;;;0.47;0.40;;;21.70;1.00;;;;;;4984328;28;20038;-80
2023/08/29 11:58:56;;;;;;;1.85;0.40;;;21.40;1.00;;;;;;4981152;28;20136;-80
2023/08/29 12:01:22;;;;;;;0.35;0.35;;;21.10;1.00;;;;;;4987279;28;20045;-80
2023/08/29 12:03:49;;;;;;;0.47;0.30;;;20.90;1.00;;;;;;4965879;28;20038;-79
2023/08/29 12:06:15;;;;;;;0.45;0.30;;;20.70;1.00;;;;;;4979760;28;20115;-79
2023/08/29 12:08:43;;;;;;;0.85;0.40;;;20.50;1.00;;;;;;4993718;28;20038;-79
2023/08/29 12:11:12;;;;;;;0.57;0.30;;;20.40;1.00;;;;;;4982891;28;20037;-78
2023/08/29 12:13:40;;;;;;;1.05;0.40;;;20.30;1.00;;;;;;4983294;28;20100;-78
2023/08/29 12:16:16;;;;;;;0.95;0.43;;;20.40;1.00;;;;;;4981359;28;20046;-78
2023/08/29 12:18:42;;;;;;;;;;;20.50;1.00;;;;;;4967227;28;20042;-78
2023/08/29 12:21:11;;;;;;;1.08;0.50;;;20.60;1.00;;;;;;4982650;28;20643;-78
2023/08/29 12:23:37;;;;;;;3.53;0.50;;;20.80;1.00;;;;;;4990367;28;20050;-78
2023/08/29 12:26:03;;;;;;;0.90;0.40;;;20.90;1.00;;;;;;4966342;28;20042;-78
2023/08/29 12:28:29;;;;;;;2.20;1.00;;;21.00;1.00;;;;;;4966957;28;20132;-78
2023/08/29 12:30:56;;;;;;;0.55;0.40;;;21.10;1.00;;;;;;4986137;28;20042;-79
2023/08/29 12:33:23;;;;;;;0.43;0.30;;;21.30;1.00;;;;;;4995322;28;20039;-78
2023/08/29 12:35:49;;;;;;;0.50;0.40;;;21.40;1.00;;;;;;4976891;28;20038;-78
2023/08/29 12:38:15;;;;;;;0.40;0.32;;;21.40;1.00;;;;;;4979118;28;20476;-78
2023/08/29 12:40:41;;;;;;;0.82;0.43;;;21.30;1.00;;;;;;4966099;28;20030;-78
2023/08/29 12:43:08;;;;;;;0.95;0.45;;;21.20;1.00;;;;;;4998171;28;20477;-78
2023/08/29 12:45:34;;;;;;;0.68;0.40;;;21.20;1.00;;;;;;4984623;28;20136;-78
2023/08/29 12:47:59;;;;;;;1.65;0.38;;;21.00;1.00;;;;;;4964242;28;20513;-78
2023/08/29 12:50:25;;;;;;;0.75;0.30;;;20.80;1.00;;;;;;4983077;28;20049;-78
2023/08/29 12:52:51;;;;;;;2.28;0.45;;;20.80;1.00;;;;;;4988496;28;20081;-78